createdAt,value
2022-10-24T00:02:35.154Z,41.47
2022-10-24T00:05:10.281Z,41.50
2022-10-24T00:07:49.022Z,40.38
2022-10-24T00:10:29.488Z,46.95
2022-10-24T00:13:19.043Z,44.28
2022-10-24T00:16:10.154Z,43.28
2022-10-24T00:18:50.806Z,44.70
2022-10-24T00:21:27.000Z,41.70
2022-10-24T00:24:07.054Z,45.92
2022-10-24T00:26:42.757Z,49.05
2022-10-24T00:29:29.702Z,48.83
2022-10-24T00:32:15.391Z,48.67
2022-10-24T00:34:53.884Z,47.38
2022-10-24T00:37:35.075Z,43.17
2022-10-24T00:40:11.096Z,46.80
2022-10-24T00:42:59.591Z,44.25
2022-10-24T00:45:57.965Z,41.58
2022-10-24T00:48:56.541Z,48.17
2022-10-24T00:51:41.821Z,44.38
2022-10-24T00:54:25.883Z,47.90
2022-10-24T00:57:08.697Z,46.08
2022-10-24T00:59:50.182Z,47.17
2022-10-24T01:02:25.065Z,46.72
2022-10-24T01:05:05.362Z,46.83
2022-10-24T01:08:10.950Z,49.67
2022-10-24T01:10:56.447Z,46.53
2022-10-24T01:14:04.007Z,47.70
2022-10-24T01:16:58.245Z,45.38
2022-10-24T01:20:23.657Z,44.22
2022-10-24T01:23:40.226Z,42.30
2022-10-24T01:26:59.772Z,42.28
2022-10-24T01:29:48.883Z,40.80
2022-10-24T01:32:35.510Z,43.05
2022-10-24T01:35:42.657Z,43.58
2022-10-24T01:38:42.283Z,45.70
2022-10-24T01:41:23.132Z,42.63
2022-10-24T01:44:28.162Z,45.10
2022-10-24T01:47:19.090Z,42.47
2022-10-24T01:50:09.484Z,44.78
2022-10-24T01:52:48.099Z,45.50
2022-10-24T01:55:22.998Z,46.75
2022-10-24T01:58:04.185Z,45.15
2022-10-24T02:00:47.880Z,48.47
2022-10-24T02:03:32.568Z,47.92
2022-10-24T02:06:22.225Z,51.00
2022-10-24T02:11:49.387Z,48.40
2022-10-24T02:14:36.179Z,52.35
2022-10-24T02:17:11.350Z,50.10
2022-10-24T02:19:54.037Z,51.28
2022-10-24T02:22:34.398Z,49.60
2022-10-24T02:25:11.015Z,46.70
2022-10-24T02:27:54.593Z,45.97
2022-10-24T02:30:37.556Z,48.20
2022-10-24T02:33:19.215Z,48.38
2022-10-24T02:35:56.628Z,50.67
2022-10-24T02:38:41.561Z,50.95
2022-10-24T02:41:28.137Z,55.28
2022-10-24T02:44:14.413Z,58.65
2022-10-24T02:47:06.056Z,63.08
2022-10-24T02:49:49.145Z,65.35
2022-10-24T02:55:08.120Z,61.50
2022-10-24T02:57:47.442Z,67.70
2022-10-24T03:00:22.614Z,67.03
2022-10-24T03:03:03.759Z,70.53
2022-10-24T03:05:57.040Z,74.88
2022-10-24T03:08:37.410Z,72.82
2022-10-24T03:11:18.411Z,70.63
2022-10-24T03:13:55.709Z,67.63
2022-10-24T03:16:36.374Z,67.22
2022-10-24T03:19:20.532Z,67.43
2022-10-24T03:21:58.297Z,62.67
2022-10-24T03:24:43.306Z,65.57
2022-10-24T03:27:17.298Z,64.75
2022-10-24T03:29:52.050Z,61.97
2022-10-24T03:32:34.581Z,58.47
2022-10-24T03:35:18.031Z,55.75
2022-10-24T03:38:09.977Z,55.63
2022-10-24T03:41:08.118Z,54.97
2022-10-24T03:43:59.401Z,53.15
2022-10-24T03:46:44.558Z,52.10
2022-10-24T03:49:28.927Z,56.45
2022-10-24T03:52:11.026Z,56.90
2022-10-24T03:54:52.118Z,57.65
2022-10-24T03:57:38.418Z,59.10
2022-10-24T04:00:20.991Z,57.35
2022-10-24T04:02:54.129Z,62.97
2022-10-24T04:05:32.049Z,59.60
2022-10-24T04:08:06.171Z,60.05
2022-10-24T04:10:36.992Z,62.58
2022-10-24T04:13:17.890Z,61.30
2022-10-24T04:15:58.404Z,56.63
2022-10-24T04:18:36.189Z,57.15
2022-10-24T04:21:16.818Z,60.25
2022-10-24T04:23:59.830Z,60.70
2022-10-24T04:26:39.075Z,59.13
2022-10-24T04:29:26.339Z,56.13
2022-10-24T04:31:59.736Z,56.28
2022-10-24T04:34:40.567Z,56.92
2022-10-24T04:37:14.049Z,54.88
2022-10-24T04:39:53.868Z,57.55
2022-10-24T04:42:31.670Z,58.85
2022-10-24T04:45:11.442Z,58.58
2022-10-24T04:47:44.230Z,62.88
2022-10-24T04:50:24.799Z,58.40
2022-10-24T04:52:59.801Z,58.35
2022-10-24T04:55:43.386Z,60.40
2022-10-24T04:58:37.761Z,65.68
2022-10-24T05:01:21.406Z,59.63
2022-10-24T05:06:45.185Z,56.83
2022-10-24T05:09:34.270Z,60.80
2022-10-24T05:15:05.748Z,61.72
2022-10-24T05:17:38.319Z,59.25
2022-10-24T05:20:14.298Z,65.10
2022-10-24T05:22:54.809Z,60.58
2022-10-24T05:25:44.330Z,60.67
2022-10-24T05:28:33.423Z,60.55
2022-10-24T05:31:08.915Z,61.28
2022-10-24T05:33:43.951Z,63.25
2022-10-24T05:36:24.354Z,61.47
2022-10-24T05:39:09.204Z,63.50
2022-10-24T05:41:55.323Z,59.40
2022-10-24T05:44:38.708Z,58.03
2022-10-24T05:47:35.154Z,55.95
2022-10-24T05:50:13.805Z,52.33
2022-10-24T05:52:49.137Z,58.50
2022-10-24T05:55:32.114Z,57.45
2022-10-24T05:58:14.514Z,50.97
2022-10-24T06:00:54.064Z,53.42
2022-10-24T06:03:42.492Z,50.95
2022-10-24T06:06:24.618Z,51.88
2022-10-24T06:09:08.797Z,52.10
2022-10-24T06:11:52.105Z,53.03
2022-10-24T06:14:27.944Z,54.78
2022-10-24T06:17:02.250Z,50.40
2022-10-24T06:19:43.009Z,53.63
2022-10-24T06:22:27.735Z,52.47
2022-10-24T06:25:05.708Z,46.15
2022-10-24T06:27:51.705Z,49.85
2022-10-24T06:30:31.615Z,45.78
2022-10-24T06:33:09.540Z,46.42
2022-10-24T06:35:58.047Z,43.08
2022-10-24T06:38:38.024Z,44.55
2022-10-24T06:41:22.516Z,47.15
2022-10-24T06:43:58.156Z,46.15
2022-10-24T06:46:32.769Z,51.28
2022-10-24T06:49:11.471Z,53.30
2022-10-24T06:51:55.591Z,54.38
2022-10-24T06:54:33.818Z,53.60
2022-10-24T06:57:11.712Z,54.80
2022-10-24T06:59:54.578Z,53.28
2022-10-24T07:02:40.952Z,50.78
2022-10-24T07:05:26.447Z,51.92
2022-10-24T07:08:15.401Z,48.33
2022-10-24T07:10:50.301Z,48.58
2022-10-24T07:13:25.013Z,47.28
2022-10-24T07:16:04.694Z,47.67
2022-10-24T07:18:48.809Z,50.28
2022-10-24T07:21:24.864Z,47.72
2022-10-24T07:24:09.176Z,46.40
2022-10-24T07:26:48.408Z,44.53
2022-10-24T07:29:28.467Z,41.97
2022-10-24T07:32:02.218Z,38.80
2022-10-24T07:34:42.823Z,38.47
2022-10-24T07:37:26.940Z,35.17
2022-10-24T07:40:12.197Z,35.50
2022-10-24T07:42:50.036Z,36.92
2022-10-24T07:45:28.323Z,34.58
2022-10-24T07:48:08.860Z,33.85
2022-10-24T07:50:51.255Z,32.47
2022-10-24T07:53:32.134Z,33.13
2022-10-24T07:56:11.985Z,31.30
2022-10-24T07:58:58.202Z,32.88
2022-10-24T08:01:32.212Z,32.60
2022-10-24T08:04:10.464Z,36.53
2022-10-24T08:06:52.104Z,40.65
2022-10-24T08:09:39.741Z,41.75
2022-10-24T08:12:22.908Z,39.90
2022-10-24T08:15:01.397Z,40.85
2022-10-24T08:17:44.695Z,37.90
2022-10-24T08:20:21.063Z,36.78
2022-10-24T08:22:56.167Z,37.60
2022-10-24T08:25:37.118Z,39.42
2022-10-24T08:28:12.324Z,38.45
2022-10-24T08:30:53.040Z,39.33
2022-10-24T08:33:33.348Z,38.22
2022-10-24T08:36:31.895Z,38.20
2022-10-24T08:39:12.440Z,37.85
2022-10-24T08:42:07.210Z,41.03
2022-10-24T08:44:47.351Z,38.30
2022-10-24T08:48:03.029Z,39.80
2022-10-24T08:50:43.588Z,34.67
2022-10-24T08:53:23.971Z,39.13
2022-10-24T08:56:05.630Z,37.95
2022-10-24T08:58:52.190Z,36.47
2022-10-24T09:01:35.450Z,35.55
2022-10-24T09:04:19.306Z,35.35
2022-10-24T09:07:01.113Z,37.85
2022-10-24T09:09:51.136Z,36.40
2022-10-24T09:12:38.550Z,35.28
2022-10-24T09:15:26.290Z,35.47
2022-10-24T09:18:04.537Z,33.47
2022-10-24T09:20:41.702Z,37.50
2022-10-24T09:23:24.341Z,38.15
2022-10-24T09:26:06.734Z,37.25
2022-10-24T09:28:46.430Z,39.80
2022-10-24T09:31:30.451Z,40.45
2022-10-24T09:36:48.457Z,41.15
2022-10-24T09:39:34.752Z,42.80
2022-10-24T09:42:20.467Z,41.58
2022-10-24T09:45:02.881Z,45.17
2022-10-24T09:47:46.784Z,45.15
2022-10-24T09:50:33.524Z,43.75
2022-10-24T09:55:50.699Z,42.55
2022-10-24T09:58:34.548Z,42.47
2022-10-24T10:01:29.040Z,43.83
2022-10-24T10:04:17.209Z,42.47
2022-10-24T10:06:51.947Z,46.78
2022-10-24T10:09:56.506Z,40.38
2022-10-24T10:12:44.151Z,41.88
2022-10-24T10:15:40.089Z,39.80
2022-10-24T10:18:35.650Z,44.72
2022-10-24T10:21:59.741Z,43.40
2022-10-24T10:24:49.574Z,41.97
2022-10-24T10:27:44.263Z,42.40
2022-10-24T10:30:29.498Z,45.22
2022-10-24T10:33:57.170Z,43.58
2022-10-24T10:36:49.427Z,44.80
2022-10-24T10:39:40.782Z,43.53
2022-10-24T10:42:27.043Z,45.42
2022-10-24T10:47:58.779Z,43.55
2022-10-24T10:50:41.763Z,44.35
2022-10-24T10:53:35.484Z,42.33
2022-10-24T10:56:36.767Z,44.58
2022-10-24T10:59:29.580Z,41.53
2022-10-24T11:02:21.923Z,43.88
2022-10-24T11:05:35.199Z,44.13
2022-10-24T11:08:42.600Z,43.28
2022-10-24T11:11:27.790Z,43.20
2022-10-24T11:14:08.981Z,44.22
2022-10-24T11:16:47.960Z,44.42
2022-10-24T11:20:05.873Z,47.35
2022-10-24T11:22:43.397Z,43.30
2022-10-24T11:25:37.269Z,43.80
2022-10-24T11:28:31.666Z,41.00
2022-10-24T11:31:29.844Z,41.33
2022-10-24T11:34:22.476Z,41.63
2022-10-24T11:37:29.548Z,37.20
2022-10-24T11:40:08.915Z,40.03
2022-10-24T11:43:13.252Z,41.40
2022-10-24T11:46:15.022Z,36.63
2022-10-24T11:49:19.794Z,38.88
2022-10-24T11:52:19.992Z,38.53
2022-10-24T11:55:14.710Z,37.88
2022-10-24T11:57:59.431Z,37.95
2022-10-24T12:01:03.406Z,38.30
2022-10-24T12:04:09.937Z,37.28
2022-10-24T12:07:21.181Z,39.50
2022-10-24T12:10:15.477Z,34.72
2022-10-24T12:16:01.491Z,34.65
2022-10-24T12:18:42.471Z,36.08
2022-10-24T12:21:19.310Z,36.85
2022-10-24T12:24:02.091Z,35.40
2022-10-24T12:26:43.499Z,34.05
2022-10-24T12:29:28.447Z,35.13
2022-10-24T12:32:20.188Z,33.92
2022-10-24T12:35:29.454Z,35.70
2022-10-24T12:38:27.442Z,35.88
2022-10-24T12:41:09.720Z,34.80
2022-10-24T12:43:54.061Z,32.10
2022-10-24T12:46:32.469Z,32.75
2022-10-24T12:49:26.779Z,33.63
2022-10-24T12:52:04.917Z,33.95
2022-10-24T12:54:51.113Z,35.45
2022-10-24T12:57:28.777Z,35.03
2022-10-24T13:00:07.907Z,34.80
2022-10-24T13:03:13.605Z,37.10
2022-10-24T13:06:06.433Z,37.03
2022-10-24T13:09:09.097Z,38.03
2022-10-24T13:12:03.089Z,38.88
2022-10-24T13:15:00.648Z,37.53
2022-10-24T13:17:59.831Z,36.53
2022-10-24T13:20:41.964Z,35.70
2022-10-24T13:23:34.560Z,37.20
2022-10-24T13:26:08.868Z,39.78
2022-10-24T13:28:47.143Z,38.80
2022-10-24T13:31:48.203Z,40.38
2022-10-24T13:34:43.296Z,37.83
2022-10-24T13:37:36.730Z,38.08
2022-10-24T13:40:33.302Z,42.20
2022-10-24T13:43:24.249Z,44.70
2022-10-24T13:46:12.125Z,39.15
2022-10-24T13:48:56.811Z,41.03
2022-10-24T13:51:43.404Z,38.15
2022-10-24T13:54:28.381Z,38.13
2022-10-24T13:57:24.185Z,40.10
2022-10-24T14:00:00.490Z,36.38
2022-10-24T14:02:43.436Z,38.10
2022-10-24T14:05:38.928Z,40.10
2022-10-24T14:08:28.667Z,37.83
2022-10-24T14:11:08.705Z,38.80
2022-10-24T14:13:53.355Z,40.97
2022-10-24T14:16:41.293Z,36.75
2022-10-24T14:19:28.293Z,40.42
2022-10-24T14:22:19.136Z,39.70
2022-10-24T14:24:54.914Z,38.47
2022-10-24T14:27:35.339Z,37.33
2022-10-24T14:30:17.404Z,38.25
2022-10-24T14:33:09.795Z,38.28
2022-10-24T14:35:47.085Z,38.78
2022-10-24T14:38:24.981Z,37.60
2022-10-24T14:41:09.440Z,38.50
2022-10-24T14:43:45.746Z,38.33
2022-10-24T14:46:26.516Z,38.40
2022-10-24T14:49:27.168Z,38.63
2022-10-24T14:52:34.228Z,40.13
2022-10-24T14:55:23.474Z,36.38
2022-10-24T14:58:14.715Z,35.47
2022-10-24T15:00:52.649Z,36.95
2022-10-24T15:03:54.162Z,35.10
2022-10-24T15:06:42.090Z,35.53
2022-10-24T15:09:23.699Z,35.72
2022-10-24T15:12:10.491Z,39.85
2022-10-24T15:14:51.853Z,38.72
2022-10-24T15:17:32.697Z,38.63
2022-10-24T15:20:18.338Z,35.58
2022-10-24T15:23:09.789Z,38.90
2022-10-24T15:25:51.119Z,36.60
2022-10-24T15:28:40.225Z,36.40
2022-10-24T15:31:27.515Z,39.92
2022-10-24T15:34:11.793Z,38.13
2022-10-24T15:36:50.251Z,37.75
2022-10-24T15:39:29.205Z,40.50
2022-10-24T15:42:20.124Z,41.20
2022-10-24T15:44:57.436Z,38.70
2022-10-24T15:47:35.003Z,39.97
2022-10-24T15:50:15.387Z,40.30
2022-10-24T15:53:06.941Z,38.55
2022-10-24T15:55:47.828Z,39.05
2022-10-24T15:58:28.962Z,38.88
2022-10-24T16:01:13.347Z,42.83
2022-10-24T16:03:51.428Z,41.30
2022-10-24T16:06:35.995Z,44.35
2022-10-24T16:09:27.506Z,44.83
2022-10-24T16:12:03.918Z,47.50
2022-10-24T16:14:40.167Z,49.08
2022-10-24T16:17:24.468Z,45.42
2022-10-24T16:20:21.256Z,50.63
2022-10-24T16:22:59.332Z,50.97
2022-10-24T16:25:37.899Z,47.03
2022-10-24T16:28:26.428Z,47.10
2022-10-24T16:31:06.829Z,47.05
2022-10-24T16:33:42.653Z,44.92
2022-10-24T16:36:25.523Z,43.58
2022-10-24T16:39:12.014Z,47.65
2022-10-24T16:41:50.940Z,50.63
2022-10-24T16:44:34.043Z,49.83
2022-10-24T16:47:14.955Z,46.90
2022-10-24T16:50:01.029Z,50.35
2022-10-24T16:52:39.561Z,45.95
2022-10-24T16:55:14.262Z,46.15
2022-10-24T16:58:00.595Z,46.90
2022-10-24T17:00:38.953Z,47.05
2022-10-24T17:03:13.790Z,48.20
2022-10-24T17:06:03.807Z,47.08
2022-10-24T17:08:44.313Z,49.20
2022-10-24T17:11:45.711Z,48.63
2022-10-24T17:14:33.561Z,47.88
2022-10-24T17:17:15.943Z,46.33
2022-10-24T17:19:54.057Z,47.88
2022-10-24T17:22:26.786Z,51.75
2022-10-24T17:25:09.432Z,51.92
2022-10-24T17:28:00.221Z,49.50
2022-10-24T17:30:37.897Z,51.42
2022-10-24T17:33:21.432Z,52.72
2022-10-24T17:36:01.934Z,48.22
2022-10-24T17:39:05.232Z,49.80
2022-10-24T17:41:45.042Z,48.05
2022-10-24T17:44:24.153Z,50.40
2022-10-24T17:47:06.001Z,46.58
2022-10-24T17:49:41.370Z,50.00
2022-10-24T17:52:27.229Z,51.70
2022-10-24T17:55:02.884Z,48.72
2022-10-24T17:57:39.919Z,47.08
2022-10-24T18:00:13.530Z,52.97
2022-10-24T18:05:26.233Z,45.15
2022-10-24T18:08:09.073Z,46.90
2022-10-24T18:10:50.276Z,49.08
2022-10-24T18:13:33.639Z,48.28
2022-10-24T18:16:12.003Z,48.40
2022-10-24T18:18:50.514Z,45.03
2022-10-24T18:21:29.517Z,49.08
2022-10-24T18:24:10.674Z,48.25
2022-10-24T18:26:49.711Z,47.22
2022-10-24T18:29:25.086Z,45.22
2022-10-24T18:32:08.212Z,45.33
2022-10-24T18:35:02.805Z,43.47
2022-10-24T18:37:37.775Z,46.58
2022-10-24T18:40:11.856Z,49.92
2022-10-24T18:43:06.054Z,47.25
2022-10-24T18:45:41.796Z,51.58
2022-10-24T18:48:16.802Z,51.25
2022-10-24T18:50:56.606Z,57.20
2022-10-24T18:53:36.305Z,57.60
2022-10-24T18:56:21.181Z,60.10
2022-10-24T18:58:57.961Z,56.97
2022-10-24T19:01:55.019Z,51.67
2022-10-24T19:04:37.229Z,51.38
2022-10-24T19:07:12.306Z,53.00
2022-10-24T19:09:47.372Z,53.95
2022-10-24T19:12:22.337Z,53.13
2022-10-24T19:15:04.231Z,58.17
2022-10-24T19:17:46.023Z,55.63
2022-10-24T19:20:26.981Z,61.30
2022-10-24T19:25:50.142Z,57.33
2022-10-24T19:28:20.868Z,64.78
2022-10-24T19:31:14.929Z,62.00
2022-10-24T19:33:50.014Z,59.00
2022-10-24T19:36:28.402Z,58.30
2022-10-24T19:39:12.380Z,56.67
2022-10-24T19:44:25.630Z,55.25
2022-10-24T19:47:03.501Z,57.33
2022-10-24T19:49:47.806Z,55.85
2022-10-24T19:52:22.510Z,55.13
2022-10-24T19:54:57.877Z,55.97
2022-10-24T19:57:45.488Z,58.53
2022-10-24T20:00:26.167Z,59.85
2022-10-24T20:03:00.970Z,56.78
2022-10-24T20:05:37.070Z,55.40
2022-10-24T20:08:15.147Z,58.65
2022-10-24T20:10:57.658Z,56.15
2022-10-24T20:13:33.684Z,53.78
2022-10-24T20:16:25.285Z,53.60
2022-10-24T20:19:06.452Z,54.50
2022-10-24T20:21:45.316Z,56.63
2022-10-24T20:24:17.897Z,62.72
2022-10-24T20:27:02.620Z,59.63
2022-10-24T20:29:37.982Z,80.72
2022-10-24T20:32:17.363Z,73.53
2022-10-24T20:34:56.145Z,71.03
2022-10-24T20:37:33.501Z,71.25
2022-10-24T20:40:18.027Z,76.00
2022-10-24T20:43:10.271Z,80.93
2022-10-24T20:45:59.885Z,79.38
2022-10-24T20:48:36.327Z,80.47
2022-10-24T20:51:17.587Z,87.18
2022-10-24T20:53:55.436Z,89.55
2022-10-24T20:56:30.999Z,87.82
2022-10-24T20:59:11.553Z,88.60
2022-10-24T21:01:47.262Z,90.35
2022-10-24T21:04:25.581Z,85.63
2022-10-24T21:07:08.467Z,86.47
2022-10-24T21:09:51.349Z,84.65
2022-10-24T21:12:34.255Z,84.40
2022-10-24T21:15:35.328Z,86.60
2022-10-24T21:18:13.518Z,82.70
2022-10-24T21:20:51.438Z,87.05
2022-10-24T21:23:29.322Z,84.00
2022-10-24T21:26:14.197Z,83.35
2022-10-24T21:29:08.933Z,83.05
2022-10-24T21:32:05.758Z,83.70
2022-10-24T21:34:43.977Z,87.47
2022-10-24T21:37:21.856Z,90.15
2022-10-24T21:40:05.376Z,87.78
2022-10-24T21:42:43.515Z,89.18
2022-10-24T21:45:25.020Z,93.28
2022-10-24T21:48:00.011Z,88.25
2022-10-24T21:53:26.540Z,86.30
2022-10-24T21:56:21.377Z,92.93
2022-10-24T21:59:05.828Z,85.40
2022-10-24T22:01:42.296Z,88.80
2022-10-24T22:04:30.477Z,92.43
2022-10-24T22:07:10.286Z,94.00
2022-10-24T22:09:45.418Z,98.93
2022-10-24T22:12:21.022Z,94.53
2022-10-24T22:14:56.234Z,97.80
2022-10-24T22:17:30.845Z,92.50
2022-10-24T22:20:02.712Z,100.05
2022-10-24T22:22:39.977Z,102.57
2022-10-24T22:25:15.776Z,101.47
2022-10-24T22:27:59.474Z,95.75
2022-10-24T22:30:51.176Z,100.30
2022-10-24T22:33:41.518Z,93.03
2022-10-24T22:36:27.057Z,96.10
2022-10-24T22:39:07.832Z,88.00
2022-10-24T22:41:54.992Z,88.13
2022-10-24T22:44:31.852Z,87.30
2022-10-24T22:47:27.576Z,87.93
2022-10-24T22:50:10.201Z,92.82
2022-10-24T22:52:58.407Z,84.53
2022-10-24T22:55:49.796Z,89.47
2022-10-24T22:58:24.722Z,85.78
2022-10-24T23:01:00.977Z,89.22
2022-10-24T23:03:48.463Z,84.65
2022-10-24T23:06:37.633Z,81.63
2022-10-24T23:09:17.042Z,77.70
2022-10-24T23:11:57.636Z,85.68
2022-10-24T23:14:39.467Z,78.78
2022-10-24T23:17:19.991Z,80.43
2022-10-24T23:19:58.659Z,76.97
2022-10-24T23:22:37.108Z,77.63
2022-10-24T23:25:18.360Z,78.57
2022-10-24T23:28:12.274Z,77.78
2022-10-24T23:30:49.916Z,79.22
2022-10-24T23:33:36.316Z,74.93
2022-10-24T23:36:25.207Z,76.40
2022-10-24T23:39:09.476Z,78.28
2022-10-24T23:41:50.295Z,75.30
2022-10-24T23:44:28.829Z,78.20
2022-10-24T23:47:27.028Z,77.00
2022-10-24T23:50:17.597Z,78.30
2022-10-24T23:53:06.340Z,71.65
2022-10-24T23:55:43.886Z,76.07
2022-10-24T23:58:23.741Z,74.90
